地図

経路データ

SID SEASON NUMBER BASIN SUBBASIN NAME ISO_TIME NATURE LAT LON WMO_WIND WMO_PRES WMO_AGENCY TRACK_TYPE DIST2LAND LANDFALL IFLAG USA_AGENCY USA_ATCF_ID USA_LAT USA_LON USA_RECORD USA_STATUS USA_WIND USA_PRES USA_SSHS USA_R34_NE USA_R34_SE USA_R34_SW USA_R34_NW USA_R50_NE USA_R50_SE USA_R50_SW USA_R50_NW USA_R64_NE USA_R64_SE USA_R64_SW USA_R64_NW USA_POCI USA_ROCI USA_RMW USA_EYE TOKYO_LAT TOKYO_LON TOKYO_GRADE TOKYO_WIND TOKYO_PRES TOKYO_R50_DIR TOKYO_R50_LONG TOKYO_R50_SHORT TOKYO_R30_DIR TOKYO_R30_LONG TOKYO_R30_SHORT TOKYO_LAND CMA_LAT CMA_LON CMA_CAT CMA_WIND CMA_PRES HKO_LAT HKO_LON HKO_CAT HKO_WIND HKO_PRES NEWDELHI_LAT NEWDELHI_LON NEWDELHI_GRADE NEWDELHI_WIND NEWDELHI_PRES NEWDELHI_CI NEWDELHI_DP NEWDELHI_POCI REUNION_LAT REUNION_LON REUNION_TYPE REUNION_WIND REUNION_PRES REUNION_TNUM REUNION_CI REUNION_RMW REUNION_R34_NE REUNION_R34_SE REUNION_R34_SW REUNION_R34_NW REUNION_R50_NE REUNION_R50_SE REUNION_R50_SW REUNION_R50_NW REUNION_R64_NE REUNION_R64_SE REUNION_R64_SW REUNION_R64_NW BOM_LAT BOM_LON BOM_TYPE BOM_WIND BOM_PRES BOM_TNUM BOM_CI BOM_RMW BOM_R34_NE BOM_R34_SE BOM_R34_SW BOM_R34_NW BOM_R50_NE BOM_R50_SE BOM_R50_SW BOM_R50_NW BOM_R64_NE BOM_R64_SE BOM_R64_SW BOM_R64_NW BOM_ROCI BOM_POCI BOM_EYE BOM_POS_METHOD BOM_PRES_METHOD NADI_LAT NADI_LON NADI_CAT NADI_WIND NADI_PRES WELLINGTON_LAT WELLINGTON_LON WELLINGTON_WIND WELLINGTON_PRES DS824_LAT DS824_LON DS824_STAGE DS824_WIND DS824_PRES TD9636_LAT TD9636_LON TD9636_STAGE TD9636_WIND TD9636_PRES TD9635_LAT TD9635_LON TD9635_WIND TD9635_PRES TD9635_ROCI NEUMANN_LAT NEUMANN_LON NEUMANN_CLASS NEUMANN_WIND NEUMANN_PRES MLC_LAT MLC_LON MLC_CLASS MLC_WIND MLC_PRES USA_GUST BOM_GUST BOM_GUST_PER REUNION_GUST REUNION_GUST_PER USA_SEAHGT USA_SEARAD_NE USA_SEARAD_SE USA_SEARAD_SW USA_SEARAD_NW STORM_SPEED STORM_DIR
1958044S14107 1958 14 SI WA NOT_NAMED 1958-02-12 23:00:00 NR -14.0000 106.900 main 712 712 __________O___ -1 -14.0000 106.900 1 7 219
1958044S14107 1958 14 SI WA NOT_NAMED 1958-02-13 00:00:00 TS -14.0917 106.821 main 725 725 O________OP___ jtwc_sh SH161958 -14.1000 106.800 -1 -14.1000 106.800 TC -14.0834 106.842 1 6 215
1958044S14107 1958 14 SI WA NOT_NAMED 1958-02-13 03:00:00 TS -14.3429 106.656 main 748 748 P________PP___ SH161958 -14.3500 106.643 -1 -14.3500 106.643 TC -14.3335 106.673 1 6 211
1958044S14107 1958 14 SI WA NOT_NAMED 1958-02-13 06:00:00 TS -14.5934 106.506 main 785 785 O________OP___ jtwc_sh SH161958 -14.6000 106.500 -1 -14.6000 106.500 TC -14.5835 106.514 1 5 211
1958044S14107 1958 14 SI WA NOT_NAMED 1958-02-13 07:00:00 TS -14.6488 106.464 1000 bom main 785 785 P_____O__PP___ SH161958 -14.6833 106.458 -1 -14.3000 106.500 1000 -14.6833 106.458 TC -14.6668 106.466 1 5 209
1958044S14107 1958 14 SI WA NOT_NAMED 1958-02-13 09:00:00 TS -14.8061 106.381 main 809 809 P_____P__PP___ SH161958 -14.8500 106.385 -1 -14.5757 106.374 -14.8500 106.385 TC -14.8334 106.376 1 6 205
1958044S14107 1958 14 SI WA NOT_NAMED 1958-02-13 11:00:00 TS -14.9787 106.303 main 833 833 P_____P__PO___ SH161958 -15.0167 106.325 -1 -14.8490 106.249 -15.0167 106.325 TC -15.0000 106.300 1 6 203
1958044S14107 1958 14 SI WA NOT_NAMED 1958-02-13 12:00:00 TS -15.0668 106.264 main 844 844 O_____P__OP___ jtwc_sh SH161958 -15.1000 106.300 -1 -14.9841 106.188 -15.1000 106.300 TC -15.0832 106.267 1 6 198
1958044S14107 1958 14 SI WA NOT_NAMED 1958-02-13 15:00:00 TS -15.3597 106.172 main 879 879 P_____P__PP___ SH161958 -15.3650 106.242 -1 -15.3792 106.013 -15.3650 106.242 TC -15.3296 106.191 1 6 196
1958044S14107 1958 14 SI WA NOT_NAMED 1958-02-13 18:00:00 TS -15.6292 106.099 main 903 903 O_____P__OP___ jtwc_sh SH161958 -15.6000 106.200 -1 -15.7533 105.856 -15.6000 106.200 TC -15.5634 106.141 1 5 195
1958044S14107 1958 14 SI WA NOT_NAMED 1958-02-13 21:00:00 TS -15.8510 106.030 main 938 938 P_____P__PP___ SH161958 -15.7650 106.143 -1 -16.0984 105.724 -15.7650 106.143 TC -15.7754 106.111 1 4 197
1958044S14107 1958 14 SI WA NOT_NAMED 1958-02-13 23:00:00 TS -15.9797 105.994 main 949 949 P_____P__PO___ SH161958 -15.8552 106.111 -1 -16.3085 105.654 -15.8552 106.111 TC -15.9000 106.100 7 4 197
1958044S14107 1958 14 SI WA NOT_NAMED 1958-02-14 00:00:00 TS -16.0616 105.962 main 960 960 O_____P__OP___ jtwc_sh SH161958 -15.9000 106.100 -1 -16.4067 105.625 -15.9000 106.100 TC -15.9551 106.091 7 5 200
1958044S14107 1958 14 SI WA NOT_NAMED 1958-02-14 01:00:00 TS -16.1414 105.940 993 bom main 963 963 P_____O__PP___ SH161958 -15.9526 106.094 -1 -16.5000 105.600 993 -15.9526 106.094 TC -16.0062 106.083 7 4 193
1958044S14107 1958 14 SI WA NOT_NAMED 1958-02-14 03:00:00 TS -16.2731 105.923 main 984 984 P_____P__PP___ SH161958 -16.0575 106.092 -1 -16.6712 105.564 -16.0575 106.092 TC -16.0983 106.073 7 4 183
1958044S14107 1958 14 SI WA NOT_NAMED 1958-02-14 06:00:00 TS -16.4422 105.923 main 995 995 O_____P__OP___ jtwc_sh SH161958 -16.2000 106.100 -1 -16.8929 105.544 -16.2000 106.100 TC -16.2181 106.071 7 3 176
1958044S14107 1958 14 SI WA NOT_NAMED 1958-02-14 09:00:00 TS -16.5710 105.938 main 1017 1015 P_____P__PP___ SH161958 -16.3000 106.100 -1 -17.0779 105.559 -16.3000 106.100 TC -16.3271 106.083 7 3 170
1958044S14107 1958 14 SI WA NOT_NAMED 1958-02-14 11:00:00 TS -16.6522 105.954 main 1021 1021 P_____P__PO___ SH161958 -16.3636 106.100 -1 -17.1838 105.588 -16.3636 106.100 TC -16.4000 106.100 2 3 172
1958044S14107 1958 14 SI WA NOT_NAMED 1958-02-14 12:00:00 TS -16.6948 105.962 main 1021 1014 O_____P__OP___ jtwc_sh SH161958 -16.4000 106.100 -1 -17.2323 105.607 -16.4000 106.100 TC -16.4416 106.101 2 3 172
1958044S14107 1958 14 SI WA NOT_NAMED 1958-02-14 15:00:00 TS -16.8358 105.980 main 1014 1001 P_____P__PP___ SH161958 -16.5500 106.078 -1 -17.3625 105.684 -16.5500 106.078 TC -16.5665 106.113 2 3 167
1958044S14107 1958 14 SI WA NOT_NAMED 1958-02-14 18:00:00 TS -16.9732 106.027 main 1001 986 O_____P__OP___ jtwc_sh SH161958 -16.7000 106.100 -1 -17.4745 105.786 -16.7000 106.100 TC -16.6915 106.148 2 3 151
1958044S14107 1958 14 SI WA NOT_NAMED 1958-02-14 21:00:00 TS -17.0882 106.124 main 986 971 P_____P__PP___ SH161958 -16.8000 106.220 -1 -17.5745 105.909 -16.8000 106.220 TC -16.8166 106.222 2 3 137
1958044S14107 1958 14 SI WA NOT_NAMED 1958-02-14 23:00:00 TS -17.1630 106.211 main 971 962 P_____P__PO___ SH161958 -16.8636 106.336 -1 -17.6376 106.001 -16.8636 106.336 TC -16.9000 106.300 7 3 131
1958044S14107 1958 14 SI WA NOT_NAMED 1958-02-15 00:00:00 TS -17.2023 106.260 main 962 962 O_____P__OP___ jtwc_sh SH161958 -16.9000 106.400 -1 -17.6688 106.050 -16.9000 106.400 TC -16.9429 106.353 7 4 128
1958044S14107 1958 14 SI WA NOT_NAMED 1958-02-15 01:00:00 TS -17.2435 106.317 993 bom main 962 947 P_____O__PP___ SH161958 -16.9469 106.458 -1 -17.7000 106.100 993 4 -16.9469 106.458 TC -16.9861 106.413 7 4 127
1958044S14107 1958 14 SI WA NOT_NAMED 1958-02-15 03:00:00 TS -17.3297 106.440 main 947 917 P_____P__PP___ SH161958 -17.0500 106.585 -1 -17.7631 106.205 -17.0500 106.585 TC -17.0723 106.550 7 5 125
1958044S14107 1958 14 SI WA NOT_NAMED 1958-02-15 06:00:00 TS -17.4571 106.641 main 917 893 O_____P__OP___ jtwc_sh SH161958 -17.2000 106.800 -1 -17.8596 106.372 -17.2000 106.800 TC -17.1998 106.786 7 5 120
1958044S14107 1958 14 SI WA NOT_NAMED 1958-02-15 09:00:00 TS -17.5638 106.862 main 884 876 P_____P__PP___ SH161958 -17.3000 107.050 -1 -17.9580 106.549 -17.3000 107.050 TC -17.3225 107.037 7 5 117
1958044S14107 1958 14 SI WA NOT_NAMED 1958-02-15 11:00:00 TS -17.6331 107.010 main 876 861 P_____P__PO___ SH161958 -17.3636 107.220 -1 -18.0244 106.671 -17.3636 107.220 TC -17.4000 107.200 2 5 126
1958044S14107 1958 14 SI WA NOT_NAMED 1958-02-15 12:00:00 TS -17.6992 107.058 main 861 845 O_____P__OP___ jtwc_sh SH161958 -17.4000 107.300 -1 -18.0579 106.734 -17.4000 107.300 TC -17.4372 107.277 2 5 137
1958044S14107 1958 14 SI WA NOT_NAMED 1958-02-15 15:00:00 TS -17.8508 107.227 main 839 824 P_____P__PP___ SH161958 -17.5375 107.512 -1 -18.1589 106.927 -17.5375 107.512 TC -17.5431 107.494 2 4 140
1958044S14107 1958 14 SI WA NOT_NAMED 1958-02-15 18:00:00 TS -18.0365 107.352 main 815 803 O_____P__OP___ jtwc_sh SH161958 -17.7000 107.700 -1 -18.2608 107.125 -17.7000 107.700 TC -17.6425 107.692 2 4 151
1958044S14107 1958 14 SI WA NOT_NAMED 1958-02-15 21:00:00 TS -18.2325 107.449 main 803 788 ______P___P___ SH161958 -1 -18.3632 107.327 TC -17.7377 107.879 2 4 148
1958044S14107 1958 14 SI WA NOT_NAMED 1958-02-15 23:00:00 TS -18.3367 107.545 main 788 777 ______P___O___ SH161958 -1 -18.4316 107.463 TC -17.8000 108.000 7 5 165
1958044S14107 1958 14 SI WA NOT_NAMED 1958-02-16 00:00:00 TS -18.4772 107.521 main 777 768 ______P_______ -1 -18.4658 107.532 7 5 161
1958044S14107 1958 14 SI WA NOT_NAMED 1958-02-16 01:00:00 NR -18.5000 107.600 1000 bom main 768 ______O_______ -1 -18.5000 107.600 1000 7 5 107

IBTrACS Databaseについて

本データベースは、米国NOAAが公開する1842年以降の世界の熱帯低気圧のベストトラックデータアーカイブInternational Best Track Archive for Climate Stewardship (IBTrACS)を、ウェブで閲覧しやすい形式に変換したものです。

最終更新日:2021-12-03